• Join FlightAware (Why Join?)
  • Login
  • US Flag 
03:38PM EDT


 

Airport Tracker/Info


-or-


 

Live Flight TrackerFlight Track Log ✈ GJS3707 ✈ 11-Jul-2013 ✈ KBOI - KORD

Flight Track Log - Related Links

Times and Time Zones

All times are in EDT time to prevent confusion due to time zone crossing. See the GJS3707 flight status page for this flight to view local times or setup timezone preferences in your user account.

Time Position Orientation Groundspeed Altitude Reporting Facility
EDT Latitude Longitude Course Direction KTS MPH feet Rate Location/Type
03:19PM 43.5845 -115.9773 75° East  Level FlightAware Approximate
03:19PM 43.4969 -115.9789 75° East 266 306 8,700  Level Salt Lake Center
03:20PM 43.6548 -115.5355 65° Northeast  Level FlightAware Approximate
03:20PM 43.5150 -115.8686 77° East 303 349 10,200  Level Salt Lake Center
03:21PM 43.6744 -115.3640 81° East  Level FlightAware Approximate
03:21PM 43.5383 -115.7328 77° East 341 392 11,800  Level Salt Lake Center
03:22PM 43.7044 -115.1945 81° East  Level FlightAware Approximate
03:22PM 43.5639 -115.5853 77° East 379 436 13,700  Level Salt Lake Center
03:23PM 43.5903 -115.4319 77° East 391 450 15,800 1,980 Climbing Salt Lake Center
03:25PM 43.6167 -115.2781 77° East 394 453 17,800 1,680 Climbing Salt Lake Center
03:26PM 43.6400 -115.1386 77° East 390 449 19,300 1,320 Climbing Salt Lake Center
03:27PM 43.6667 -114.9828 77° East 393 452 20,600 1,140 Climbing Salt Lake Center
03:28PM 43.6914 -114.8347 77° East 412 474 21,700 1,200 Climbing Salt Lake Center
03:29PM 43.7200 -114.6594 77° East 421 484 23,100 1,200 Climbing Salt Lake Center
03:30PM 43.7456 -114.5061 77° East 429 494 24,200 1,200 Climbing Salt Lake Center
03:31PM 43.7747 -114.3247 77° East 436 502 25,600 1,200 Climbing Salt Lake Center
03:32PM 43.7994 -114.1675 78° East 439 505 26,700 1,200 Climbing Salt Lake Center
03:33PM 43.8286 -113.9836 78° East 441 507 28,100 1,200 Climbing Salt Lake Center
03:34PM 43.8544 -113.8144 78° East 447 514 29,300 1,140 Climbing Salt Lake Center
03:35PM 43.8792 -113.6556 78° East 444 511 30,500 780 Climbing Salt Lake Center
03:36PM 43.9056 -113.4653 79° East 450 518 30,900 360 Climbing Salt Lake Center
03:37PM 43.9311 -113.2936 78° East 471 542 31,300 420 Climbing Salt Lake Center
03:38PM 43.9614 -113.0883 78° East 486 559 31,800 420 Climbing Salt Lake Center
03:39PM 43.9875 -112.9072 79° East 499 574 32,200 420 Climbing Salt Lake Center
03:40PM 44.0203 -112.6922 78° East 510 587 32,700 480 Climbing Salt Lake Center
03:41PM 44.0475 -112.5056 78° East 516 594 33,300 720 Climbing Salt Lake Center
03:42PM 44.0722 -112.3189 79° East 515 593 34,200 840 Climbing Salt Lake Center
03:43PM 44.0894 -112.1061 83° East 500 575 35,100 660 Climbing Salt Lake Center
03:44PM 44.0911 -111.9244 89° East 490 564 35,600 540 Climbing Salt Lake Center
03:45PM 44.0919 -111.7117 90° East 496 571 36,300 600 Climbing Salt Lake Center
03:46PM 44.0925 -111.5294 90° East 496 571 36,900 300 Climbing Salt Lake Center
03:47PM 44.0928 -111.3161 90° East 497 572 37,000  Climbing Salt Lake Center
03:48PM 44.0936 -111.1297 90° East 505 581 37,000  Level Salt Lake Center
03:49PM 44.0933 -110.9089 90° East 513 590 37,000  Level Salt Lake Center
03:50PM 44.0931 -110.7206 90° East 511 588 37,000  Level Salt Lake Center
03:51PM 44.0933 -110.5025 90° East 508 585 37,000  Level Salt Lake Center
03:52PM 44.0922 -110.3153 90° East 506 582 37,000  Level Salt Lake Center
03:53PM 44.0911 -110.0983 90° East 503 579 37,000  Level Salt Lake Center
03:54PM 44.0886 -109.9119 91° East 506 582 37,000  Level Salt Lake Center
03:55PM 44.0856 -109.6947 91° East 505 581 37,000  Level Salt Lake Center
03:57PM 44.0839 -109.5058 91° East 509 586 37,000  Level Salt Lake Center
03:58PM 44.0778 -109.3106 92° East 507 583 37,000  Level Salt Lake Center
03:59PM 44.0758 -109.1117 91° East 514 592 37,000  Level Salt Lake Center
04:00PM 44.0714 -108.8719 91° East 519 597 37,000  Level Salt Lake Center
04:01PM 44.0681 -108.6733 91° East 518 596 37,000  Level Salt Lake Center
04:02PM 44.0628 -108.4731 92° East 520 598 37,000  Level Salt Lake Center
04:03PM 44.0583 -108.2733 92° East 521 600 37,000  Level Salt Lake Center
04:04PM 44.0525 -108.0722 92° East 524 603 37,000  Level Salt Lake Center
04:05PM 44.0481 -107.8739 92° East 521 600 37,000  Level Salt Lake Center
04:06PM 44.0406 -107.6328 92° East 526 605 37,000  Level Salt Lake Center
04:07PM 44.0342 -107.4311 92° East 527 606 37,000  Level Salt Lake Center
04:08PM 44.0283 -107.2294 92° East 526 605 37,000  Level Salt Lake Center
04:08PM 44.0244 -107.1086 93° East 522 601 37,000  Level Denver Center
04:09PM 44.0178 -106.9089 93° East 522 601 37,000  Level Denver Center
04:10PM 44.0144 -106.8294 93° East 521 600 37,000  Level Salt Lake Center
04:11PM 44.0058 -106.5922 93° East 517 595 37,000  Level Salt Lake Center
04:12PM 44.0017 -106.4592 92° East 510 587 37,000  Level Denver Center
04:13PM 44.0017 -106.1994 90° East 513 590 37,000  Level Salt Lake Center
04:14PM 44.0033 -106.0494 89° East 511 588 37,000  Level Denver Center
04:15PM 44.0042 -105.8608 90° East 509 586 37,000  Level Denver Center
04:16PM 44.0044 -105.6444 90° East 504 580 37,000  Level Denver Center
04:17PM 44.0042 -105.4581 90° East 503 579 37,000  Level Denver Center
04:18PM 44.0036 -105.2417 90° East 501 577 37,000  Level Denver Center
04:19PM 44.0028 -105.0553 90° East 503 579 37,000  Level Denver Center
04:20PM 44.0017 -104.8678 90° East 505 581 37,000  Level Denver Center
04:21PM 44.0008 -104.6497 90° East 505 581 37,000  Level Denver Center
04:22PM 43.9989 -104.4608 91° East 509 586 37,000  Level Denver Center
04:23PM 43.9967 -104.2433 91° East 506 582 37,000  Level Denver Center
04:24PM 43.9944 -104.0564 91° East 505 581 37,000  Level Denver Center
04:25PM 43.9917 -103.8364 91° East 510 587 37,000  Level Denver Center
04:26PM 43.9886 -103.6475 91° East 511 588 37,000  Level Denver Center
04:27PM 43.9844 -103.4281 91° East 508 585 37,000  Level Denver Center
04:28PM 43.9822 -103.2419 91° East 504 580 37,000  Level Denver Center
04:29PM 43.9772 -103.0208 92° East 510 587 37,000  Level Denver Center
04:30PM 43.9742 -102.8358 91° East 505 581 37,000  Level Denver Center
04:31PM 43.9681 -102.6525 93° East 507 583 37,000  Level Denver Center
04:32PM 43.9592 -102.4172 93° East 509 586 37,000  Level Denver Center
04:33PM 43.9511 -102.2200 93° East 512 589 37,000  Level Denver Center
04:34PM 43.9425 -102.0250 93° East 510 587 37,000  Level Denver Center
04:35PM 43.9361 -101.8292 93° East 510 587 37,000  Level Denver Center
04:37PM 43.9278 -101.6356 93° East 507 583 37,000  Level Denver Center
04:38PM 43.9217 -101.4428 92° East 504 580 37,000  Level Denver Center
04:39PM 43.9161 -101.2172 92° East 501 577 37,100 180 Climbing Minneapolis Center
04:40PM 43.9094 -101.0211 93° East 507 583 37,500 360 Climbing Minneapolis Center
04:41PM 43.9022 -100.8261 93° East 509 586 37,900 360 Climbing Minneapolis Center
04:42PM 43.8947 -100.6317 93° East 508 585 38,300 360 Climbing Minneapolis Center
04:43PM 43.8864 -100.4375 93° East 508 585 38,700 300 Climbing Minneapolis Center
04:44PM 43.8742 -100.1686 94° East 503 579 39,000 120 Climbing Minneapolis Center
04:45PM 43.8672 -99.9747 93° East 504 580 39,000  Level Minneapolis Center
04:46PM 43.8589 -99.7819 93° East 504 580 39,000  Level Minneapolis Center
04:47PM 43.8486 -99.5881 94° East 506 582 39,000  Level Minneapolis Center
04:48PM 43.8394 -99.3969 94° East 502 578 39,000  Level Minneapolis Center
04:49PM 43.8283 -99.1661 94° East 503 579 39,000  Level Minneapolis Center
04:50PM 43.8189 -98.9764 94° East 499 574 39,000  Level Minneapolis Center
04:51PM 43.8083 -98.7856 94° East 500 575 39,000  Level Minneapolis Center
04:52PM 43.7967 -98.5797 94° East 500 575 39,000  Level Minneapolis Center
04:53PM 43.7844 -98.3881 95° East 502 578 39,000  Level Minneapolis Center
04:54PM 43.7753 -98.2353 95° East 501 577 39,000  Level Minneapolis Center
04:55PM 43.7614 -98.0053 95° East 502 578 39,000  Level Minneapolis Center
04:56PM 43.7494 -97.8142 95° East 501 577 39,000  Level Minneapolis Center
04:57PM 43.7344 -97.5856 95° East 501 577 39,000  Level Minneapolis Center
04:58PM 43.7219 -97.3928 95° East 504 580 39,000  Level Minneapolis Center
05:00PM 43.7086 -97.2017 95° East 504 580 39,000  Level Minneapolis Center
05:01PM 43.6947 -97.0106 96° East 505 581 39,000  Level Minneapolis Center
05:02PM 43.6806 -96.8192 96° East 505 581 39,000  Level Minneapolis Center
05:03PM 43.6636 -96.5903 96° East 504 580 39,000  Level Minneapolis Center
05:04PM 43.6494 -96.3994 96° East 504 580 39,000  Level Minneapolis Center
05:05PM 43.6350 -96.2083 96° East 508 585 39,000  Level Minneapolis Center
05:06PM 43.6203 -96.0175 96° East 506 582 39,000  Level Minneapolis Center
05:07PM 43.6042 -95.8267 97° East 505 581 39,000  Level Minneapolis Center
05:08PM 43.5858 -95.5981 96° East 505 581 39,000  Level Minneapolis Center
05:09PM 43.5703 -95.4064 96° East 506 582 39,000  Level Minneapolis Center
05:10PM 43.5533 -95.2147 97° East 507 583 39,000  Level Minneapolis Center
05:11PM 43.5367 -95.0225 97° East 509 586 39,000  Level Minneapolis Center
05:12PM 43.5181 -94.8297 98° East 510 587 39,000  Level Minneapolis Center
05:13PM 43.4969 -94.5981 97° East 510 587 39,000  Level Minneapolis Center
05:14PM 43.4783 -94.4039 97° East 512 589 39,000  Level Minneapolis Center
05:15PM 43.4625 -94.2381 97° East 512 589 39,000 -360 Level Minneapolis Center
05:16PM 43.4389 -94.0058 98° East 515 593 38,300 -720 Descending Minneapolis Center
05:17PM 43.4208 -93.8144 97° East 511 588 37,600 -780 Descending Minneapolis Center
05:18PM 43.4022 -93.6269 98° East 506 582 36,800 -900 Descending Minneapolis Center
05:19PM 43.3828 -93.4400 98° East 501 577 35,800 -1,080 Descending Minneapolis Center
05:20PM 43.3581 -93.2169 99° East 497 572 34,600 -1,080 Descending Minneapolis Center
05:21PM 43.3400 -93.0303 98° East 496 571 33,600 -960 Descending Minneapolis Center
05:22PM 43.3200 -92.8450 98° East 495 570 32,600 -1,020 Descending Minneapolis Center
05:23PM 43.3000 -92.6611 98° East 493 567 31,600 -780 Descending Minneapolis Center
05:24PM 43.2800 -92.4800 99° East 486 559 31,000 -300 Descending Minneapolis Center
05:25PM 43.2594 -92.3008 99° East 481 554 31,000  Level Minneapolis Center
05:26PM 43.2344 -92.0761 99° East 495 570 31,000  Level Minneapolis Center
05:27PM 43.2133 -91.8850 99° East 502 578 31,000  Level Minneapolis Center
05:28PM 43.1911 -91.6944 99° East 506 582 31,000  Level Minneapolis Center
05:30PM 43.1358 -91.5153 113° Southeast 515 593 31,000  Level Minneapolis Center
05:31PM 43.0742 -91.3369 115° Southeast 518 596 31,000  Level Minneapolis Center
05:32PM 43.0122 -91.1597 115° Southeast 517 595 31,000 -300 Level Minneapolis Center
05:33PM 42.9383 -90.9525 116° Southeast 510 587 30,500 -660 Descending Minneapolis Center
05:34PM 42.8794 -90.7850 116° Southeast 498 573 29,700 -780 Descending Minneapolis Center
05:35PM 42.8217 -90.6239 116° Southeast 486 559 28,900 -780 Descending Minneapolis Center
05:36PM 42.7658 -90.4681 116° Southeast 470 541 28,100 -840 Descending Minneapolis Center
05:37PM 42.7156 -90.3314 117° Southeast 423 487 27,200 -1,020 Descending Minneapolis Center
05:38PM 42.6439 -90.1231 115° Southeast 394 453 25,600 -1,020 Descending Chicago Center
05:39PM 42.5950 -89.9897 116° Southeast 398 458 24,600 -1,080 Descending Chicago Center
05:40PM 42.5743 -89.9276 116° Southeast  Level FlightAware Approximate
05:40PM 42.5383 -89.8347 116° Southeast 395 455 23,400  Level Chicago Center
05:41PM 42.5178 -89.7050 102° East 359 413 22,400 -1,140 Descending Chicago Center
05:42PM 42.5147 -89.5686 92° East 361 415 21,100 -1,440 Descending Chicago Center
05:43PM 42.5119 -89.4372 92° East 352 405 19,500 -1,560 Descending Chicago Center
05:44PM 42.5106 -89.3119 91° East 338 389 17,900 -1,620 Descending Chicago Center
05:46PM 42.5086 -89.1700 91° East 325 374 16,200 -1,620 Descending Chicago Center
05:47PM 42.4881 -89.0539 103° East 321 369 14,600 -1,500 Descending Chicago Center
05:48PM 42.4644 -88.9408 106° East 313 360 13,200 -1,320 Descending Chicago Center
05:49PM 42.4419 -88.8283 105° East 311 358 11,900 -1,380 Descending Chicago Center
05:50PM 42.4164 -88.7014 105° East 303 349 10,400 -1,380 Descending Chicago Center
05:51PM 42.3944 -88.5939 105° East 297 342 9,100 -720 Descending Chicago Center
05:52PM 42.3717 -88.4908 107° East 290 334 9,000 -60 Descending Chicago Center
05:53PM 42.3050 -88.4292 146° Southeast 304 350 9,000  Level Chicago Center
05:54PM 42.2236 -88.4244 178° South 297 342 9,100 -420 Climbing Chicago Center
05:55PM 42.1408 -88.4181 177° South 299 344 8,200 -1,020 Descending Chicago Center
05:56PM 42.0614 -88.4161 179° South 291 335 7,000 -1,020 Descending Chicago Center
05:57PM 41.9950 -88.3942 166° South 258 297 6,200 -780 Descending Chicago Center
05:58PM 41.9639 -88.3056 115° Southeast 224 258 5,400 -540 Descending Chicago Center
05:59PM 41.9672 -88.2328 86° East 201 231 5,100 -600 Descending Chicago Center
06:00PM 41.9678 -88.1631 89° East 191 220 4,200 -960 Descending Chicago Center
06:01PM 41.9678 -88.0956 90° East 185 213 3,200 -1,020 Descending Chicago Center